sensor_id;sensor_type;location;lat;lon;timestamp;P1;durP1;ratioP1;P2;durP2;ratioP2
33138;SDS011;19501;50.948;5.316;2023-06-14T00:00:50;19.25;;;11.27;;
33138;SDS011;19501;50.948;5.316;2023-06-14T00:03:17;21.05;;;11.55;;
33138;SDS011;19501;50.948;5.316;2023-06-14T00:05:47;22.30;;;11.20;;
33138;SDS011;19501;50.948;5.316;2023-06-14T00:08:13;20.65;;;11.60;;
33138;SDS011;19501;50.948;5.316;2023-06-14T00:10:40;22.48;;;11.90;;
33138;SDS011;19501;50.948;5.316;2023-06-14T00:13:07;22.75;;;11.98;;
33138;SDS011;19501;50.948;5.316;2023-06-14T00:15:34;22.00;;;11.68;;
33138;SDS011;19501;50.948;5.316;2023-06-14T00:18:00;23.88;;;12.07;;
33138;SDS011;19501;50.948;5.316;2023-06-14T00:20:29;20.10;;;11.80;;
33138;SDS011;19501;50.948;5.316;2023-06-14T00:23:01;24.95;;;11.40;;
33138;SDS011;19501;50.948;5.316;2023-06-14T00:25:27;20.52;;;11.45;;
33138;SDS011;19501;50.948;5.316;2023-06-14T00:27:53;21.02;;;11.80;;
33138;SDS011;19501;50.948;5.316;2023-06-14T00:30:20;21.38;;;12.45;;
33138;SDS011;19501;50.948;5.316;2023-06-14T00:32:48;21.63;;;11.40;;
33138;SDS011;19501;50.948;5.316;2023-06-14T00:35:15;23.65;;;12.10;;
33138;SDS011;19501;50.948;5.316;2023-06-14T00:37:40;22.38;;;12.02;;
33138;SDS011;19501;50.948;5.316;2023-06-14T00:40:06;23.90;;;12.80;;
33138;SDS011;19501;50.948;5.316;2023-06-14T00:42:32;24.48;;;12.57;;
33138;SDS011;19501;50.948;5.316;2023-06-14T00:44:59;21.50;;;12.23;;
33138;SDS011;19501;50.948;5.316;2023-06-14T00:47:25;22.83;;;11.88;;
33138;SDS011;19501;50.948;5.316;2023-06-14T00:49:51;22.38;;;12.35;;
33138;SDS011;19501;50.948;5.316;2023-06-14T00:52:19;22.10;;;12.40;;
33138;SDS011;19501;50.948;5.316;2023-06-14T00:54:46;21.58;;;11.90;;
33138;SDS011;19501;50.948;5.316;2023-06-14T00:57:12;21.35;;;11.70;;
33138;SDS011;19501;50.948;5.316;2023-06-14T00:59:40;22.20;;;12.02;;
33138;SDS011;19501;50.948;5.316;2023-06-14T01:02:08;21.27;;;12.05;;
33138;SDS011;19501;50.948;5.316;2023-06-14T01:04:35;20.30;;;11.65;;
33138;SDS011;19501;50.948;5.316;2023-06-14T01:07:02;22.77;;;12.52;;
33138;SDS011;19501;50.948;5.316;2023-06-14T01:12:31;23.90;;;13.52;;
33138;SDS011;19501;50.948;5.316;2023-06-14T01:15:19;21.48;;;12.07;;
33138;SDS011;19501;50.948;5.316;2023-06-14T01:17:46;22.40;;;12.35;;
33138;SDS011;19501;50.948;5.316;2023-06-14T01:20:16;21.95;;;11.93;;
33138;SDS011;19501;50.948;5.316;2023-06-14T01:23:00;21.20;;;11.98;;
33138;SDS011;19501;50.948;5.316;2023-06-14T01:25:27;23.73;;;12.90;;
33138;SDS011;19501;50.948;5.316;2023-06-14T01:27:53;20.52;;;11.95;;
33138;SDS011;19501;50.948;5.316;2023-06-14T01:30:23;24.77;;;13.18;;
33138;SDS011;19501;50.948;5.316;2023-06-14T01:32:53;27.75;;;13.65;;
33138;SDS011;19501;50.948;5.316;2023-06-14T01:35:21;25.25;;;13.63;;
33138;SDS011;19501;50.948;5.316;2023-06-14T01:37:48;22.75;;;12.57;;
33138;SDS011;19501;50.948;5.316;2023-06-14T01:40:17;24.90;;;13.25;;
33138;SDS011;19501;50.948;5.316;2023-06-14T01:42:46;25.52;;;13.55;;
33138;SDS011;19501;50.948;5.316;2023-06-14T01:45:16;27.45;;;11.82;;
33138;SDS011;19501;50.948;5.316;2023-06-14T01:47:43;21.88;;;13.15;;
33138;SDS011;19501;50.948;5.316;2023-06-14T01:50:12;21.52;;;12.75;;
33138;SDS011;19501;50.948;5.316;2023-06-14T01:52:41;21.42;;;13.18;;
33138;SDS011;19501;50.948;5.316;2023-06-14T01:55:06;23.95;;;12.85;;
33138;SDS011;19501;50.948;5.316;2023-06-14T01:57:34;24.77;;;12.45;;
33138;SDS011;19501;50.948;5.316;2023-06-14T02:00:01;26.52;;;12.75;;
33138;SDS011;19501;50.948;5.316;2023-06-14T02:02:28;25.33;;;13.20;;
33138;SDS011;19501;50.948;5.316;2023-06-14T02:04:56;23.92;;;13.43;;
33138;SDS011;19501;50.948;5.316;2023-06-14T02:07:22;24.60;;;13.05;;
33138;SDS011;19501;50.948;5.316;2023-06-14T02:09:49;25.25;;;13.50;;
33138;SDS011;19501;50.948;5.316;2023-06-14T02:12:14;25.83;;;13.82;;
33138;SDS011;19501;50.948;5.316;2023-06-14T02:14:40;23.42;;;13.40;;
33138;SDS011;19501;50.948;5.316;2023-06-14T02:17:06;26.67;;;14.40;;
33138;SDS011;19501;50.948;5.316;2023-06-14T02:19:31;24.58;;;13.93;;
33138;SDS011;19501;50.948;5.316;2023-06-14T02:21:57;23.52;;;13.70;;
33138;SDS011;19501;50.948;5.316;2023-06-14T02:24:22;23.45;;;13.98;;
33138;SDS011;19501;50.948;5.316;2023-06-14T02:26:51;26.42;;;13.55;;
33138;SDS011;19501;50.948;5.316;2023-06-14T02:29:16;26.92;;;13.65;;
33138;SDS011;19501;50.948;5.316;2023-06-14T02:31:42;24.00;;;13.68;;
33138;SDS011;19501;50.948;5.316;2023-06-14T02:34:12;24.80;;;13.93;;
33138;SDS011;19501;50.948;5.316;2023-06-14T02:36:40;24.35;;;13.35;;
33138;SDS011;19501;50.948;5.316;2023-06-14T02:39:07;24.52;;;13.68;;
33138;SDS011;19501;50.948;5.316;2023-06-14T02:41:36;22.85;;;13.70;;
33138;SDS011;19501;50.948;5.316;2023-06-14T02:44:02;28.02;;;14.63;;
33138;SDS011;19501;50.948;5.316;2023-06-14T02:46:28;29.23;;;14.80;;
33138;SDS011;19501;50.948;5.316;2023-06-14T02:48:54;24.02;;;13.90;;
33138;SDS011;19501;50.948;5.316;2023-06-14T02:51:19;28.60;;;14.07;;
33138;SDS011;19501;50.948;5.316;2023-06-14T02:53:45;24.42;;;14.35;;
33138;SDS011;19501;50.948;5.316;2023-06-14T02:56:11;25.92;;;13.73;;
33138;SDS011;19501;50.948;5.316;2023-06-14T02:58:37;25.48;;;14.10;;
33138;SDS011;19501;50.948;5.316;2023-06-14T03:01:04;25.02;;;13.82;;
33138;SDS011;19501;50.948;5.316;2023-06-14T03:03:33;22.65;;;13.80;;
33138;SDS011;19501;50.948;5.316;2023-06-14T03:05:58;29.13;;;14.15;;
33138;SDS011;19501;50.948;5.316;2023-06-14T03:08:30;25.05;;;13.85;;
33138;SDS011;19501;50.948;5.316;2023-06-14T03:10:58;28.05;;;14.32;;
33138;SDS011;19501;50.948;5.316;2023-06-14T03:13:24;35.40;;;14.40;;
33138;SDS011;19501;50.948;5.316;2023-06-14T03:15:49;23.67;;;14.32;;
33138;SDS011;19501;50.948;5.316;2023-06-14T03:18:16;25.20;;;15.05;;
33138;SDS011;19501;50.948;5.316;2023-06-14T03:20:42;25.02;;;14.40;;
33138;SDS011;19501;50.948;5.316;2023-06-14T03:23:08;28.20;;;14.57;;
33138;SDS011;19501;50.948;5.316;2023-06-14T03:25:34;25.63;;;15.88;;
33138;SDS011;19501;50.948;5.316;2023-06-14T03:28:04;24.67;;;15.50;;
33138;SDS011;19501;50.948;5.316;2023-06-14T03:30:32;24.00;;;14.50;;
33138;SDS011;19501;50.948;5.316;2023-06-14T03:32:57;29.23;;;14.43;;
33138;SDS011;19501;50.948;5.316;2023-06-14T03:35:26;25.55;;;15.73;;
33138;SDS011;19501;50.948;5.316;2023-06-14T03:37:52;24.98;;;14.75;;
33138;SDS011;19501;50.948;5.316;2023-06-14T03:40:18;28.63;;;15.38;;
33138;SDS011;19501;50.948;5.316;2023-06-14T03:42:45;26.60;;;14.35;;
33138;SDS011;19501;50.948;5.316;2023-06-14T03:45:10;30.40;;;15.32;;
33138;SDS011;19501;50.948;5.316;2023-06-14T03:47:36;26.35;;;14.77;;
33138;SDS011;19501;50.948;5.316;2023-06-14T03:50:02;25.20;;;15.27;;
33138;SDS011;19501;50.948;5.316;2023-06-14T03:52:29;27.90;;;14.35;;
33138;SDS011;19501;50.948;5.316;2023-06-14T03:54:56;26.70;;;15.02;;
33138;SDS011;19501;50.948;5.316;2023-06-14T03:57:22;28.77;;;14.75;;
33138;SDS011;19501;50.948;5.316;2023-06-14T03:59:48;30.25;;;14.15;;
33138;SDS011;19501;50.948;5.316;2023-06-14T04:02:14;27.65;;;14.93;;
33138;SDS011;19501;50.948;5.316;2023-06-14T04:04:41;29.08;;;15.32;;
33138;SDS011;19501;50.948;5.316;2023-06-14T04:07:10;26.83;;;14.20;;
33138;SDS011;19501;50.948;5.316;2023-06-14T04:09:37;29.17;;;15.00;;
33138;SDS011;19501;50.948;5.316;2023-06-14T04:12:03;25.98;;;14.82;;
33138;SDS011;19501;50.948;5.316;2023-06-14T04:14:30;26.73;;;14.98;;
33138;SDS011;19501;50.948;5.316;2023-06-14T04:16:57;28.83;;;14.18;;
33138;SDS011;19501;50.948;5.316;2023-06-14T04:19:26;26.38;;;13.45;;
33138;SDS011;19501;50.948;5.316;2023-06-14T04:21:52;26.15;;;14.23;;
33138;SDS011;19501;50.948;5.316;2023-06-14T04:24:18;25.75;;;14.38;;
33138;SDS011;19501;50.948;5.316;2023-06-14T04:26:44;29.42;;;14.15;;
33138;SDS011;19501;50.948;5.316;2023-06-14T04:29:13;26.35;;;14.57;;
33138;SDS011;19501;50.948;5.316;2023-06-14T04:31:45;25.52;;;14.55;;
33138;SDS011;19501;50.948;5.316;2023-06-14T04:34:11;26.48;;;14.65;;
33138;SDS011;19501;50.948;5.316;2023-06-14T04:36:41;25.95;;;14.95;;
33138;SDS011;19501;50.948;5.316;2023-06-14T04:39:14;27.88;;;15.20;;
33138;SDS011;19501;50.948;5.316;2023-06-14T04:41:43;24.10;;;14.15;;
33138;SDS011;19501;50.948;5.316;2023-06-14T04:44:09;31.15;;;14.70;;
33138;SDS011;19501;50.948;5.316;2023-06-14T04:46:35;26.85;;;14.60;;
33138;SDS011;19501;50.948;5.316;2023-06-14T04:49:21;24.95;;;13.45;;
33138;SDS011;19501;50.948;5.316;2023-06-14T04:51:48;29.50;;;14.95;;
33138;SDS011;19501;50.948;5.316;2023-06-14T04:54:22;29.48;;;14.60;;
33138;SDS011;19501;50.948;5.316;2023-06-14T04:56:49;27.60;;;15.23;;
33138;SDS011;19501;50.948;5.316;2023-06-14T04:59:15;24.60;;;14.13;;
33138;SDS011;19501;50.948;5.316;2023-06-14T05:01:42;25.23;;;13.60;;
33138;SDS011;19501;50.948;5.316;2023-06-14T05:04:12;25.50;;;14.15;;
33138;SDS011;19501;50.948;5.316;2023-06-14T05:06:42;24.13;;;14.52;;
33138;SDS011;19501;50.948;5.316;2023-06-14T05:09:13;32.05;;;15.02;;
33138;SDS011;19501;50.948;5.316;2023-06-14T05:11:43;27.77;;;14.25;;
33138;SDS011;19501;50.948;5.316;2023-06-14T05:14:09;26.98;;;14.50;;
33138;SDS011;19501;50.948;5.316;2023-06-14T05:16:38;24.95;;;14.00;;
33138;SDS011;19501;50.948;5.316;2023-06-14T05:19:04;25.52;;;13.38;;
33138;SDS011;19501;50.948;5.316;2023-06-14T05:21:37;26.23;;;14.57;;
33138;SDS011;19501;50.948;5.316;2023-06-14T05:24:04;27.13;;;14.50;;
33138;SDS011;19501;50.948;5.316;2023-06-14T05:26:29;24.65;;;14.07;;
33138;SDS011;19501;50.948;5.316;2023-06-14T05:28:55;25.58;;;13.32;;
33138;SDS011;19501;50.948;5.316;2023-06-14T05:31:22;26.00;;;14.20;;
33138;SDS011;19501;50.948;5.316;2023-06-14T05:33:49;26.65;;;14.15;;
33138;SDS011;19501;50.948;5.316;2023-06-14T05:36:15;26.08;;;15.20;;
33138;SDS011;19501;50.948;5.316;2023-06-14T05:38:44;24.23;;;13.55;;
33138;SDS011;19501;50.948;5.316;2023-06-14T05:41:10;26.05;;;14.63;;
33138;SDS011;19501;50.948;5.316;2023-06-14T05:43:36;25.30;;;13.65;;
33138;SDS011;19501;50.948;5.316;2023-06-14T05:46:02;25.08;;;13.35;;
33138;SDS011;19501;50.948;5.316;2023-06-14T05:48:28;25.73;;;14.02;;
33138;SDS011;19501;50.948;5.316;2023-06-14T05:50:55;26.58;;;13.93;;
33138;SDS011;19501;50.948;5.316;2023-06-14T05:53:21;22.88;;;12.98;;
33138;SDS011;19501;50.948;5.316;2023-06-14T05:55:46;26.75;;;13.60;;
33138;SDS011;19501;50.948;5.316;2023-06-14T05:58:12;27.52;;;13.95;;
33138;SDS011;19501;50.948;5.316;2023-06-14T06:00:46;33.50;;;14.77;;
33138;SDS011;19501;50.948;5.316;2023-06-14T06:03:11;24.70;;;12.88;;
33138;SDS011;19501;50.948;5.316;2023-06-14T06:05:38;23.42;;;12.77;;
33138;SDS011;19501;50.948;5.316;2023-06-14T06:08:04;25.65;;;12.68;;
33138;SDS011;19501;50.948;5.316;2023-06-14T06:10:30;28.08;;;13.93;;
33138;SDS011;19501;50.948;5.316;2023-06-14T06:12:55;25.92;;;12.77;;
33138;SDS011;19501;50.948;5.316;2023-06-14T06:15:21;27.83;;;14.13;;
33138;SDS011;19501;50.948;5.316;2023-06-14T06:17:47;24.38;;;13.20;;
33138;SDS011;19501;50.948;5.316;2023-06-14T06:20:12;24.30;;;12.98;;
33138;SDS011;19501;50.948;5.316;2023-06-14T06:22:38;26.83;;;13.55;;
33138;SDS011;19501;50.948;5.316;2023-06-14T06:25:06;23.77;;;13.00;;
33138;SDS011;19501;50.948;5.316;2023-06-14T06:27:35;23.65;;;12.98;;
33138;SDS011;19501;50.948;5.316;2023-06-14T06:30:07;26.33;;;12.38;;
33138;SDS011;19501;50.948;5.316;2023-06-14T06:32:33;21.50;;;11.65;;
33138;SDS011;19501;50.948;5.316;2023-06-14T06:34:59;26.60;;;12.65;;
33138;SDS011;19501;50.948;5.316;2023-06-14T06:37:25;21.88;;;11.75;;
33138;SDS011;19501;50.948;5.316;2023-06-14T06:39:51;22.60;;;12.18;;
33138;SDS011;19501;50.948;5.316;2023-06-14T06:42:16;23.58;;;11.40;;
33138;SDS011;19501;50.948;5.316;2023-06-14T06:44:42;26.70;;;11.95;;
33138;SDS011;19501;50.948;5.316;2023-06-14T06:47:08;29.20;;;13.30;;
33138;SDS011;19501;50.948;5.316;2023-06-14T06:49:34;20.77;;;10.45;;
33138;SDS011;19501;50.948;5.316;2023-06-14T06:52:03;22.92;;;11.73;;
33138;SDS011;19501;50.948;5.316;2023-06-14T06:54:30;27.95;;;12.23;;
33138;SDS011;19501;50.948;5.316;2023-06-14T06:56:56;22.23;;;11.68;;
33138;SDS011;19501;50.948;5.316;2023-06-14T06:59:25;23.17;;;11.57;;
33138;SDS011;19501;50.948;5.316;2023-06-14T07:01:50;22.88;;;11.88;;
33138;SDS011;19501;50.948;5.316;2023-06-14T07:04:16;24.80;;;11.85;;
33138;SDS011;19501;50.948;5.316;2023-06-14T07:06:43;26.42;;;11.63;;
33138;SDS011;19501;50.948;5.316;2023-06-14T07:09:09;27.02;;;12.70;;
33138;SDS011;19501;50.948;5.316;2023-06-14T07:11:42;23.40;;;10.85;;
33138;SDS011;19501;50.948;5.316;2023-06-14T07:14:10;22.30;;;11.10;;
33138;SDS011;19501;50.948;5.316;2023-06-14T07:16:37;22.42;;;11.55;;
33138;SDS011;19501;50.948;5.316;2023-06-14T07:19:03;24.42;;;11.38;;
33138;SDS011;19501;50.948;5.316;2023-06-14T07:21:29;22.50;;;10.98;;
33138;SDS011;19501;50.948;5.316;2023-06-14T07:23:55;21.63;;;10.68;;
33138;SDS011;19501;50.948;5.316;2023-06-14T07:26:21;23.02;;;11.32;;
33138;SDS011;19501;50.948;5.316;2023-06-14T07:28:48;21.42;;;10.38;;
33138;SDS011;19501;50.948;5.316;2023-06-14T07:31:16;20.58;;;10.25;;
33138;SDS011;19501;50.948;5.316;2023-06-14T07:33:45;18.73;;;10.68;;
33138;SDS011;19501;50.948;5.316;2023-06-14T07:36:11;21.27;;;10.60;;
33138;SDS011;19501;50.948;5.316;2023-06-14T07:38:37;21.25;;;10.13;;
33138;SDS011;19501;50.948;5.316;2023-06-14T07:41:05;23.75;;;10.90;;
33138;SDS011;19501;50.948;5.316;2023-06-14T07:43:31;21.83;;;9.88;;
33138;SDS011;19501;50.948;5.316;2023-06-14T07:45:59;19.63;;;10.27;;
33138;SDS011;19501;50.948;5.316;2023-06-14T07:48:25;22.00;;;10.48;;
33138;SDS011;19501;50.948;5.316;2023-06-14T07:50:51;18.92;;;9.82;;
33138;SDS011;19501;50.948;5.316;2023-06-14T07:53:16;21.63;;;10.38;;
33138;SDS011;19501;50.948;5.316;2023-06-14T07:55:42;21.60;;;10.68;;
33138;SDS011;19501;50.948;5.316;2023-06-14T07:58:08;21.27;;;10.13;;
33138;SDS011;19501;50.948;5.316;2023-06-14T08:00:35;24.92;;;10.45;;
33138;SDS011;19501;50.948;5.316;2023-06-14T08:03:01;21.40;;;10.45;;
33138;SDS011;19501;50.948;5.316;2023-06-14T08:05:27;22.73;;;10.70;;
33138;SDS011;19501;50.948;5.316;2023-06-14T08:07:53;19.35;;;10.35;;
33138;SDS011;19501;50.948;5.316;2023-06-14T08:10:19;21.25;;;10.18;;
33138;SDS011;19501;50.948;5.316;2023-06-14T08:12:46;19.65;;;9.88;;
33138;SDS011;19501;50.948;5.316;2023-06-14T08:15:17;21.70;;;10.45;;
33138;SDS011;19501;50.948;5.316;2023-06-14T08:17:43;25.27;;;9.80;;
33138;SDS011;19501;50.948;5.316;2023-06-14T08:20:10;21.10;;;10.48;;
33138;SDS011;19501;50.948;5.316;2023-06-14T08:22:36;24.35;;;9.90;;
33138;SDS011;19501;50.948;5.316;2023-06-14T08:25:07;24.02;;;9.30;;
33138;SDS011;19501;50.948;5.316;2023-06-14T08:27:37;20.75;;;9.23;;
33138;SDS011;19501;50.948;5.316;2023-06-14T08:30:02;20.23;;;9.20;;
33138;SDS011;19501;50.948;5.316;2023-06-14T08:32:28;21.05;;;10.02;;
33138;SDS011;19501;50.948;5.316;2023-06-14T08:34:54;19.33;;;8.68;;
33138;SDS011;19501;50.948;5.316;2023-06-14T08:37:20;23.08;;;9.48;;
33138;SDS011;19501;50.948;5.316;2023-06-14T08:39:45;21.05;;;8.65;;
33138;SDS011;19501;50.948;5.316;2023-06-14T08:42:11;18.95;;;8.85;;
33138;SDS011;19501;50.948;5.316;2023-06-14T08:44:39;21.20;;;9.55;;
33138;SDS011;19501;50.948;5.316;2023-06-14T08:47:05;19.33;;;9.65;;
33138;SDS011;19501;50.948;5.316;2023-06-14T08:49:33;20.35;;;9.43;;
33138;SDS011;19501;50.948;5.316;2023-06-14T08:52:00;19.77;;;8.30;;
33138;SDS011;19501;50.948;5.316;2023-06-14T08:54:27;19.30;;;9.82;;
33138;SDS011;19501;50.948;5.316;2023-06-14T08:57:00;19.17;;;8.93;;
33138;SDS011;19501;50.948;5.316;2023-06-14T08:59:27;15.23;;;7.50;;
33138;SDS011;19501;50.948;5.316;2023-06-14T09:01:56;22.60;;;8.85;;
33138;SDS011;19501;50.948;5.316;2023-06-14T09:04:22;23.63;;;8.63;;
33138;SDS011;19501;50.948;5.316;2023-06-14T09:09:20;26.92;;;8.30;;
33138;SDS011;19501;50.948;5.316;2023-06-14T09:11:48;22.38;;;9.07;;
33138;SDS011;19501;50.948;5.316;2023-06-14T09:14:15;16.55;;;7.32;;
33138;SDS011;19501;50.948;5.316;2023-06-14T09:16:41;19.50;;;7.13;;
33138;SDS011;19501;50.948;5.316;2023-06-14T09:19:06;17.20;;;7.70;;
33138;SDS011;19501;50.948;5.316;2023-06-14T09:21:35;20.58;;;7.70;;
33138;SDS011;19501;50.948;5.316;2023-06-14T09:24:02;18.83;;;7.82;;
33138;SDS011;19501;50.948;5.316;2023-06-14T09:26:31;20.20;;;8.40;;
33138;SDS011;19501;50.948;5.316;2023-06-14T09:28:59;18.98;;;7.32;;
33138;SDS011;19501;50.948;5.316;2023-06-14T09:31:25;18.48;;;7.40;;
33138;SDS011;19501;50.948;5.316;2023-06-14T09:33:54;17.77;;;7.03;;
33138;SDS011;19501;50.948;5.316;2023-06-14T09:36:22;17.48;;;7.15;;
33138;SDS011;19501;50.948;5.316;2023-06-14T09:38:58;18.85;;;8.30;;
33138;SDS011;19501;50.948;5.316;2023-06-14T09:41:36;25.98;;;8.32;;
33138;SDS011;19501;50.948;5.316;2023-06-14T09:44:09;16.02;;;6.93;;
33138;SDS011;19501;50.948;5.316;2023-06-14T09:46:37;17.25;;;7.05;;
33138;SDS011;19501;50.948;5.316;2023-06-14T09:49:05;16.00;;;6.35;;
33138;SDS011;19501;50.948;5.316;2023-06-14T09:51:34;16.38;;;6.50;;
33138;SDS011;19501;50.948;5.316;2023-06-14T09:54:02;16.35;;;6.50;;
33138;SDS011;19501;50.948;5.316;2023-06-14T09:56:33;15.23;;;6.25;;
33138;SDS011;19501;50.948;5.316;2023-06-14T09:59:02;18.15;;;6.90;;
33138;SDS011;19501;50.948;5.316;2023-06-14T10:01:32;16.30;;;6.65;;
33138;SDS011;19501;50.948;5.316;2023-06-14T10:04:04;14.68;;;6.85;;
33138;SDS011;19501;50.948;5.316;2023-06-14T10:06:31;13.18;;;6.40;;
33138;SDS011;19501;50.948;5.316;2023-06-14T10:08:59;12.70;;;5.90;;
33138;SDS011;19501;50.948;5.316;2023-06-14T10:11:26;12.95;;;6.07;;
33138;SDS011;19501;50.948;5.316;2023-06-14T10:13:53;12.52;;;5.97;;
33138;SDS011;19501;50.948;5.316;2023-06-14T10:21:58;15.88;;;6.40;;
33138;SDS011;19501;50.948;5.316;2023-06-14T10:27:06;20.17;;;6.68;;
33138;SDS011;19501;50.948;5.316;2023-06-14T10:32:26;14.18;;;5.30;;
33138;SDS011;19501;50.948;5.316;2023-06-14T10:34:54;14.43;;;6.18;;
33138;SDS011;19501;50.948;5.316;2023-06-14T10:37:24;15.60;;;7.05;;
33138;SDS011;19501;50.948;5.316;2023-06-14T10:39:53;14.75;;;5.97;;
33138;SDS011;19501;50.948;5.316;2023-06-14T10:42:19;12.98;;;5.85;;
33138;SDS011;19501;50.948;5.316;2023-06-14T10:44:51;11.43;;;5.63;;
33138;SDS011;19501;50.948;5.316;2023-06-14T10:49:50;15.10;;;6.00;;
33138;SDS011;19501;50.948;5.316;2023-06-14T10:52:20;17.92;;;6.13;;
33138;SDS011;19501;50.948;5.316;2023-06-14T10:55:03;13.02;;;6.00;;
33138;SDS011;19501;50.948;5.316;2023-06-14T10:57:34;14.85;;;6.00;;
33138;SDS011;19501;50.948;5.316;2023-06-14T11:00:02;15.80;;;5.72;;
33138;SDS011;19501;50.948;5.316;2023-06-14T11:05:53;14.82;;;6.22;;
33138;SDS011;19501;50.948;5.316;2023-06-14T11:10:52;13.27;;;4.25;;
33138;SDS011;19501;50.948;5.316;2023-06-14T11:13:24;11.00;;;5.00;;
33138;SDS011;19501;50.948;5.316;2023-06-14T11:15:51;9.43;;;4.95;;
33138;SDS011;19501;50.948;5.316;2023-06-14T11:18:21;10.68;;;4.35;;
33138;SDS011;19501;50.948;5.316;2023-06-14T11:20:49;8.25;;;3.85;;
33138;SDS011;19501;50.948;5.316;2023-06-14T11:23:15;9.85;;;3.92;;
33138;SDS011;19501;50.948;5.316;2023-06-14T11:25:41;8.27;;;3.75;;
33138;SDS011;19501;50.948;5.316;2023-06-14T11:28:07;7.53;;;3.60;;
33138;SDS011;19501;50.948;5.316;2023-06-14T11:30:33;15.70;;;3.80;;
33138;SDS011;19501;50.948;5.316;2023-06-14T11:32:59;7.00;;;3.45;;
33138;SDS011;19501;50.948;5.316;2023-06-14T11:35:27;11.15;;;3.40;;
33138;SDS011;19501;50.948;5.316;2023-06-14T11:37:53;7.93;;;3.05;;
33138;SDS011;19501;50.948;5.316;2023-06-14T11:40:25;7.35;;;3.20;;
33138;SDS011;19501;50.948;5.316;2023-06-14T11:42:59;7.22;;;3.42;;
33138;SDS011;19501;50.948;5.316;2023-06-14T11:45:26;7.28;;;3.28;;
33138;SDS011;19501;50.948;5.316;2023-06-14T11:47:55;7.60;;;3.17;;
33138;SDS011;19501;50.948;5.316;2023-06-14T11:50:21;5.35;;;3.10;;
33138;SDS011;19501;50.948;5.316;2023-06-14T11:52:54;8.82;;;3.50;;
33138;SDS011;19501;50.948;5.316;2023-06-14T11:55:24;8.85;;;3.30;;
33138;SDS011;19501;50.948;5.316;2023-06-14T11:57:50;12.10;;;3.30;;
33138;SDS011;19501;50.948;5.316;2023-06-14T12:00:17;10.10;;;3.72;;
33138;SDS011;19501;50.948;5.316;2023-06-14T12:02:51;8.15;;;3.60;;
33138;SDS011;19501;50.948;5.316;2023-06-14T12:05:20;6.90;;;3.15;;
33138;SDS011;19501;50.948;5.316;2023-06-14T12:07:48;6.80;;;3.40;;
33138;SDS011;19501;50.948;5.316;2023-06-14T12:10:15;11.15;;;3.22;;
33138;SDS011;19501;50.948;5.316;2023-06-14T12:12:41;10.63;;;3.22;;
33138;SDS011;19501;50.948;5.316;2023-06-14T12:15:07;6.88;;;3.40;;
33138;SDS011;19501;50.948;5.316;2023-06-14T12:17:36;14.30;;;4.63;;
33138;SDS011;19501;50.948;5.316;2023-06-14T12:20:07;5.47;;;3.17;;
33138;SDS011;19501;50.948;5.316;2023-06-14T12:22:39;14.48;;;3.50;;
33138;SDS011;19501;50.948;5.316;2023-06-14T12:25:22;8.10;;;3.28;;
33138;SDS011;19501;50.948;5.316;2023-06-14T12:27:59;10.52;;;3.97;;
33138;SDS011;19501;50.948;5.316;2023-06-14T12:30:29;9.05;;;3.80;;
33138;SDS011;19501;50.948;5.316;2023-06-14T12:32:54;10.88;;;3.55;;
33138;SDS011;19501;50.948;5.316;2023-06-14T12:35:20;6.93;;;3.55;;
33138;SDS011;19501;50.948;5.316;2023-06-14T12:37:46;6.90;;;3.63;;
33138;SDS011;19501;50.948;5.316;2023-06-14T12:40:12;8.15;;;3.97;;
33138;SDS011;19501;50.948;5.316;2023-06-14T12:42:41;6.18;;;3.35;;
33138;SDS011;19501;50.948;5.316;2023-06-14T12:45:07;9.35;;;3.90;;
33138;SDS011;19501;50.948;5.316;2023-06-14T12:47:33;11.35;;;4.28;;
33138;SDS011;19501;50.948;5.316;2023-06-14T12:49:58;10.00;;;3.72;;
33138;SDS011;19501;50.948;5.316;2023-06-14T12:52:26;12.15;;;3.75;;
33138;SDS011;19501;50.948;5.316;2023-06-14T12:54:52;8.93;;;3.90;;
33138;SDS011;19501;50.948;5.316;2023-06-14T12:57:17;11.10;;;3.90;;
33138;SDS011;19501;50.948;5.316;2023-06-14T12:59:45;7.22;;;3.58;;
33138;SDS011;19501;50.948;5.316;2023-06-14T13:02:14;9.48;;;3.97;;
33138;SDS011;19501;50.948;5.316;2023-06-14T13:04:42;12.50;;;4.03;;
33138;SDS011;19501;50.948;5.316;2023-06-14T13:07:08;11.00;;;3.80;;
33138;SDS011;19501;50.948;5.316;2023-06-14T13:09:35;10.75;;;4.05;;
33138;SDS011;19501;50.948;5.316;2023-06-14T13:12:04;20.92;;;3.90;;
33138;SDS011;19501;50.948;5.316;2023-06-14T13:14:30;8.45;;;3.75;;
33138;SDS011;19501;50.948;5.316;2023-06-14T13:16:57;11.60;;;3.38;;
33138;SDS011;19501;50.948;5.316;2023-06-14T13:19:26;6.40;;;3.55;;
33138;SDS011;19501;50.948;5.316;2023-06-14T13:21:51;7.85;;;3.38;;
33138;SDS011;19501;50.948;5.316;2023-06-14T13:24:17;12.73;;;4.20;;
33138;SDS011;19501;50.948;5.316;2023-06-14T13:26:43;7.13;;;3.50;;
33138;SDS011;19501;50.948;5.316;2023-06-14T13:29:08;6.75;;;3.60;;
33138;SDS011;19501;50.948;5.316;2023-06-14T13:31:34;9.45;;;3.88;;
33138;SDS011;19501;50.948;5.316;2023-06-14T13:34:00;6.07;;;3.90;;
33138;SDS011;19501;50.948;5.316;2023-06-14T13:36:26;7.93;;;3.88;;
33138;SDS011;19501;50.948;5.316;2023-06-14T13:38:51;12.45;;;3.90;;
33138;SDS011;19501;50.948;5.316;2023-06-14T13:41:18;7.53;;;4.00;;
33138;SDS011;19501;50.948;5.316;2023-06-14T13:43:43;8.68;;;3.95;;
33138;SDS011;19501;50.948;5.316;2023-06-14T13:46:09;7.65;;;3.60;;
33138;SDS011;19501;50.948;5.316;2023-06-14T13:48:35;7.80;;;3.95;;
33138;SDS011;19501;50.948;5.316;2023-06-14T13:51:00;13.82;;;4.13;;
33138;SDS011;19501;50.948;5.316;2023-06-14T13:53:28;11.65;;;3.95;;
33138;SDS011;19501;50.948;5.316;2023-06-14T13:55:54;7.20;;;3.83;;
33138;SDS011;19501;50.948;5.316;2023-06-14T13:58:20;8.35;;;4.10;;
33138;SDS011;19501;50.948;5.316;2023-06-14T14:00:46;7.57;;;3.90;;
33138;SDS011;19501;50.948;5.316;2023-06-14T14:03:12;8.27;;;3.67;;
33138;SDS011;19501;50.948;5.316;2023-06-14T14:05:40;11.18;;;3.80;;
33138;SDS011;19501;50.948;5.316;2023-06-14T14:08:06;7.75;;;3.90;;
33138;SDS011;19501;50.948;5.316;2023-06-14T14:10:34;7.45;;;3.95;;
33138;SDS011;19501;50.948;5.316;2023-06-14T14:12:59;10.23;;;3.78;;
33138;SDS011;19501;50.948;5.316;2023-06-14T14:15:26;13.10;;;3.90;;
33138;SDS011;19501;50.948;5.316;2023-06-14T14:17:53;17.73;;;4.72;;
33138;SDS011;19501;50.948;5.316;2023-06-14T14:20:19;7.05;;;3.83;;
33138;SDS011;19501;50.948;5.316;2023-06-14T14:22:45;9.35;;;3.80;;
33138;SDS011;19501;50.948;5.316;2023-06-14T14:25:10;11.43;;;3.72;;
33138;SDS011;19501;50.948;5.316;2023-06-14T14:27:36;11.60;;;4.25;;
33138;SDS011;19501;50.948;5.316;2023-06-14T14:30:04;8.75;;;4.00;;
33138;SDS011;19501;50.948;5.316;2023-06-14T14:32:33;9.13;;;3.90;;
33138;SDS011;19501;50.948;5.316;2023-06-14T14:35:01;7.07;;;3.78;;
33138;SDS011;19501;50.948;5.316;2023-06-14T14:37:26;8.70;;;3.90;;
33138;SDS011;19501;50.948;5.316;2023-06-14T14:39:52;7.50;;;3.72;;
33138;SDS011;19501;50.948;5.316;2023-06-14T14:42:18;10.25;;;3.70;;
33138;SDS011;19501;50.948;5.316;2023-06-14T14:44:44;10.05;;;3.90;;
33138;SDS011;19501;50.948;5.316;2023-06-14T14:47:10;9.48;;;4.20;;
33138;SDS011;19501;50.948;5.316;2023-06-14T14:49:36;8.82;;;3.70;;
33138;SDS011;19501;50.948;5.316;2023-06-14T14:52:04;8.90;;;3.80;;
33138;SDS011;19501;50.948;5.316;2023-06-14T14:54:30;12.00;;;3.30;;